Погода Алто Арагуаяна 2 недели

Мату-Гросу, Бразилия

18 - 30 июля
  • 18июля
    Сегодня
    +14°
    +32°
    Практически безоблачно
    ВремяПогодаТемператураВлажностьДавлениеВетер, м/сВероятность осадков
    02:00Практически безоблачно+16°C61 %710 мм2.6 м/с5 %
    05:00Ясно и безоблачно+16°C66 %710 мм1.7 м/с5 %
    08:00Ясно и безоблачно+20°C47 %712 мм1.2 м/с5 %
    11:00Ясно и безоблачно+28°C27 %713 мм3.5 м/с5 %
    14:00Практически безоблачно+31°C25 %711 мм2.4 м/с5 %
    17:00Ясно и безоблачно+28°C31 %710 мм1.6 м/с5 %
    20:00Ясно и безоблачно+22°C45 %711 мм1.7 м/с5 %
    23:00Ясно и безоблачно+18°C53 %710 мм2.2 м/с5 %
  • 19июля
    Пятница
    +17°
    +32°
    Ясно и безоблачно
    ВремяПогодаТемператураВлажностьДавлениеВетер, м/сВероятность осадков
    02:00Ясно и безоблачно+16°C58 %709 мм2.1 м/с5 %
    05:00Ясно и безоблачно+15°C64 %710 мм2.0 м/с5 %
    08:00Ясно и безоблачно+21°C44 %713 мм0.8 м/с5 %
    11:00Ясно и безоблачно+29°C25 %714 мм4.5 м/с5 %
    14:00Ясно и безоблачно+32°C23 %712 мм2.2 м/с5 %
    17:00Ясно и безоблачно+29°C34 %711 мм1.7 м/с5 %
    20:00Ясно и безоблачно+23°C38 %712 мм1.5 м/с5 %
    23:00Ясно и безоблачно+20°C43 %712 мм2.7 м/с5 %
  • 20июля
    Суббота
    +15°
    +33°
    Ясно и безоблачно
    ВремяПогодаТемператураВлажностьДавлениеВетер, м/сВероятность осадков
    02:00Ясно и безоблачно+18°C49 %711 мм3.3 м/с5 %
    05:00Ясно и безоблачно+18°C50 %711 мм2.7 м/с5 %
    08:00Ясно и безоблачно+22°C39 %713 мм1.8 м/с5 %
    11:00Ясно и безоблачно+30°C22 %713 мм2.6 м/с5 %
    14:00Ясно и безоблачно+32°C20 %711 мм1.5 м/с5 %
    17:00Ясно и безоблачно+30°C26 %710 мм1.5 м/с5 %
    20:00Ясно и безоблачно+23°C34 %710 мм1.7 м/с5 %
    23:00Ясно и безоблачно+19°C41 %710 мм2.5 м/с5 %
  • 21июля
    Воскресенье
    +12°
    +32°
    Ясно и безоблачно
    ВремяПогодаТемператураВлажностьДавлениеВетер, м/сВероятность осадков
    02:00Ясно и безоблачно+18°C47 %709 мм2.7 м/с5 %
    05:00Ясно и безоблачно+17°C50 %709 мм1.8 м/с5 %
    08:00Ясно и безоблачно+22°C40 %711 мм1.5 м/с5 %
    11:00Ясно и безоблачно+29°C24 %712 мм4.7 м/с5 %
    14:00Ясно и безоблачно+32°C22 %710 мм2.9 м/с5 %
    17:00Ясно и безоблачно+29°C30 %710 мм1.5 м/с5 %
    20:00Ясно и безоблачно+22°C37 %710 мм2.0 м/с5 %
    23:00Ясно и безоблачно+19°C46 %710 мм1.9 м/с5 %
Мы используем cookies
Соглашаюсь